createdAt,value
2018-03-11T00:01:11.172Z,14.77
2018-03-11T00:03:37.522Z,15.47
2018-03-11T00:06:04.641Z,15.70
2018-03-11T00:08:30.991Z,13.80
2018-03-11T00:10:57.376Z,15.23
2018-03-11T00:13:23.726Z,17.43
2018-03-11T00:15:50.024Z,15.10
2018-03-11T00:18:16.363Z,16.67
2018-03-11T00:20:42.721Z,16.07
2018-03-11T00:23:09.031Z,15.77
2018-03-11T00:25:35.331Z,18.27
2018-03-11T00:28:01.735Z,18.10
2018-03-11T00:30:28.061Z,17.57
2018-03-11T00:32:54.424Z,20.57
2018-03-11T00:35:20.792Z,18.40
2018-03-11T00:37:47.137Z,21.00
2018-03-11T00:40:13.560Z,17.57
2018-03-11T00:42:39.994Z,18.47
2018-03-11T00:45:06.318Z,18.70
2018-03-11T00:47:32.696Z,19.47
2018-03-11T00:49:59.038Z,18.50
2018-03-11T00:52:26.185Z,18.80
2018-03-11T00:54:52.548Z,18.00
2018-03-11T00:57:18.943Z,18.17
2018-03-11T00:59:45.312Z,18.70
2018-03-11T01:02:11.691Z,19.50
2018-03-11T01:04:38.061Z,18.43
2018-03-11T01:07:05.140Z,19.87
2018-03-11T01:09:31.523Z,19.60
2018-03-11T01:11:57.864Z,18.47
2018-03-11T01:14:24.252Z,21.17
2018-03-11T01:16:51.316Z,22.30
2018-03-11T01:19:17.657Z,21.13
2018-03-11T01:21:44.072Z,20.90
2018-03-11T01:24:10.403Z,19.50
2018-03-11T01:26:36.756Z,21.20
2018-03-11T01:29:03.091Z,19.40
2018-03-11T01:31:29.443Z,21.10
2018-03-11T01:33:57.315Z,21.60
2018-03-11T01:36:23.635Z,21.10
2018-03-11T01:38:50.008Z,21.80
2018-03-11T01:41:16.359Z,21.90
2018-03-11T01:43:42.780Z,20.87
2018-03-11T01:46:09.147Z,22.40
2018-03-11T01:48:35.462Z,21.40
2018-03-11T01:51:01.820Z,21.87
2018-03-11T01:53:28.159Z,23.13
2018-03-11T01:55:54.499Z,22.97
2018-03-11T01:58:20.865Z,21.50
2018-03-11T02:00:47.221Z,22.77
2018-03-11T02:03:13.540Z,21.00
2018-03-11T02:05:39.915Z,19.67
2018-03-11T02:08:06.976Z,20.60
2018-03-11T02:10:34.096Z,22.30
2018-03-11T02:13:00.431Z,22.10
2018-03-11T02:15:26.828Z,19.80
2018-03-11T02:17:53.871Z,20.57
2018-03-11T02:20:20.210Z,22.73
2018-03-11T02:22:46.548Z,21.07
2018-03-11T02:25:13.639Z,21.37
2018-03-11T02:27:39.951Z,20.43
2018-03-11T02:30:07.056Z,20.70
2018-03-11T02:32:33.409Z,22.93
2018-03-11T02:34:59.763Z,21.63
2018-03-11T02:37:26.939Z,23.60
2018-03-11T02:39:54.772Z,23.00
2018-03-11T02:42:21.120Z,22.90
2018-03-11T02:44:47.447Z,24.20
2018-03-11T02:47:14.556Z,21.70
2018-03-11T02:49:40.900Z,22.00
2018-03-11T02:52:08.748Z,25.10
2018-03-11T02:54:35.875Z,23.23
2018-03-11T02:57:02.231Z,24.50
2018-03-11T02:59:28.591Z,24.87
2018-03-11T03:01:54.931Z,24.47
2018-03-11T03:04:21.245Z,26.63
2018-03-11T03:06:48.352Z,22.03
2018-03-11T03:09:14.707Z,23.50
2018-03-11T03:11:41.063Z,23.07
2018-03-11T03:14:07.420Z,23.80
2018-03-11T03:16:33.821Z,22.13
2018-03-11T03:19:00.151Z,24.90
2018-03-11T03:21:26.530Z,21.53
2018-03-11T03:23:52.857Z,23.37
2018-03-11T03:26:19.215Z,22.50
2018-03-11T03:28:45.532Z,23.50
2018-03-11T03:31:11.832Z,23.73
2018-03-11T03:33:38.239Z,25.60
2018-03-11T03:36:05.355Z,24.10
2018-03-11T03:38:31.794Z,22.67
2018-03-11T03:40:58.151Z,25.63
2018-03-11T03:43:24.527Z,23.17
2018-03-11T03:45:50.872Z,25.40
2018-03-11T03:48:17.232Z,25.20
2018-03-11T03:50:43.558Z,25.77
2018-03-11T03:53:09.884Z,26.17
2018-03-11T03:55:36.188Z,22.70
2018-03-11T03:58:03.320Z,26.90
2018-03-11T04:00:29.707Z,27.37
2018-03-11T04:02:56.057Z,27.17
2018-03-11T04:05:22.391Z,28.87
2018-03-11T04:07:48.748Z,28.43
2018-03-11T04:10:15.078Z,27.67
2018-03-11T04:12:42.183Z,27.80
2018-03-11T04:15:08.491Z,25.20
2018-03-11T04:17:34.843Z,28.30
2018-03-11T04:20:01.195Z,27.37
2018-03-11T04:22:27.538Z,24.70
2018-03-11T04:24:53.849Z,25.07
2018-03-11T04:27:20.188Z,27.00
2018-03-11T04:29:47.241Z,25.97
2018-03-11T04:32:13.628Z,25.93
2018-03-11T04:34:40.749Z,25.50
2018-03-11T04:37:07.968Z,26.17
2018-03-11T04:39:34.299Z,27.47
2018-03-11T04:42:00.624Z,26.20
2018-03-11T04:44:26.951Z,26.37
2018-03-11T04:46:53.271Z,26.40
2018-03-11T04:49:19.596Z,26.33
2018-03-11T04:51:45.912Z,28.10
2018-03-11T04:54:12.239Z,27.90
2018-03-11T04:56:39.351Z,25.27
2018-03-11T04:59:06.486Z,26.97
2018-03-11T05:01:33.568Z,25.30
2018-03-11T05:03:59.899Z,23.43
2018-03-11T05:06:26.217Z,26.70
2018-03-11T05:08:52.576Z,24.97
2018-03-11T05:11:20.390Z,21.27
2018-03-11T05:13:47.479Z,22.30
2018-03-11T05:16:13.791Z,21.50
2018-03-11T05:18:40.884Z,22.97
2018-03-11T05:21:07.223Z,23.03
2018-03-11T05:23:33.576Z,21.60
2018-03-11T05:25:59.879Z,22.17
2018-03-11T05:28:26.995Z,21.60
2018-03-11T05:30:53.377Z,22.00
2018-03-11T05:33:20.528Z,20.17
2018-03-11T05:35:46.923Z,22.80
2018-03-11T05:38:13.336Z,20.70
2018-03-11T05:40:39.715Z,22.57
2018-03-11T05:43:06.861Z,20.03
2018-03-11T05:45:34.043Z,22.03
2018-03-11T05:48:00.507Z,19.77
2018-03-11T05:50:27.213Z,20.97
2018-03-11T05:52:53.583Z,19.20
2018-03-11T05:55:19.955Z,20.90
2018-03-11T05:57:47.055Z,19.40
2018-03-11T06:00:13.556Z,20.13
2018-03-11T06:02:40.680Z,20.80
2018-03-11T06:05:07.096Z,20.43
2018-03-11T06:07:33.458Z,21.03
2018-03-11T06:10:00.595Z,19.53
2018-03-11T06:12:26.959Z,19.13
2018-03-11T06:14:53.415Z,20.03
2018-03-11T06:17:19.852Z,17.80
2018-03-11T06:19:46.995Z,16.87
2018-03-11T06:22:13.374Z,18.83
2018-03-11T06:24:39.737Z,18.50
2018-03-11T06:27:06.177Z,17.63
2018-03-11T06:29:32.640Z,19.43
2018-03-11T06:31:59.095Z,18.30
2018-03-11T06:34:25.490Z,18.57
2018-03-11T06:36:53.324Z,18.93
2018-03-11T06:39:19.714Z,17.40
2018-03-11T06:41:46.111Z,20.03
2018-03-11T06:44:13.264Z,17.40
2018-03-11T06:46:41.155Z,16.00
2018-03-11T06:49:08.269Z,14.83
2018-03-11T06:51:34.630Z,17.50
2018-03-11T06:54:01.071Z,15.73
2018-03-11T06:56:27.528Z,16.77
2018-03-11T06:58:53.891Z,15.90
2018-03-11T07:01:21.782Z,16.30
2018-03-11T07:03:48.171Z,14.80
2018-03-11T07:06:14.604Z,15.77
2018-03-11T07:08:41.168Z,14.10
2018-03-11T07:11:07.614Z,13.70
2018-03-11T07:13:34.063Z,15.63
2018-03-11T07:16:01.309Z,15.80
2018-03-11T07:18:27.778Z,13.50
2018-03-11T07:20:54.350Z,14.83
2018-03-11T07:23:20.940Z,15.10
2018-03-11T07:25:48.148Z,14.93
2018-03-11T07:28:14.532Z,11.70
2018-03-11T07:30:40.967Z,14.47
2018-03-11T07:33:07.363Z,14.00
2018-03-11T07:35:34.532Z,14.00
2018-03-11T07:38:01.682Z,13.17
2018-03-11T07:40:28.840Z,12.73
2018-03-11T07:42:55.280Z,13.70
2018-03-11T07:45:22.645Z,13.40
2018-03-11T07:47:49.019Z,13.23
2018-03-11T07:50:15.375Z,13.00
2018-03-11T07:52:41.697Z,13.80
2018-03-11T07:55:08.132Z,13.20
2018-03-11T07:57:34.493Z,12.90
2018-03-11T08:00:00.882Z,11.73
2018-03-11T08:02:27.478Z,13.87
2018-03-11T08:04:53.887Z,11.53
2018-03-11T08:07:20.308Z,10.10
2018-03-11T08:09:46.688Z,11.93
2018-03-11T08:12:13.109Z,11.63
2018-03-11T08:14:40.360Z,13.10
2018-03-11T08:17:06.771Z,12.20
2018-03-11T08:19:33.163Z,13.57
2018-03-11T08:22:00.288Z,13.17
2018-03-11T08:24:26.728Z,13.43
2018-03-11T08:26:53.181Z,13.53
2018-03-11T08:29:19.560Z,13.17
2018-03-11T08:31:45.968Z,14.73
2018-03-11T08:34:12.406Z,13.23
2018-03-11T08:36:38.810Z,12.57
2018-03-11T08:39:05.198Z,12.80
2018-03-11T08:41:31.631Z,12.40
2018-03-11T08:43:58.029Z,13.90
2018-03-11T08:46:24.411Z,11.57
2018-03-11T08:48:50.776Z,9.63
2018-03-11T08:51:17.923Z,11.77
2018-03-11T08:53:44.470Z,13.10
2018-03-11T08:56:10.907Z,12.07
2018-03-11T08:58:37.424Z,12.30
2018-03-11T09:01:04.566Z,10.83
2018-03-11T09:03:30.930Z,10.93
2018-03-11T09:05:57.331Z,12.03
2018-03-11T09:08:23.725Z,11.90
2018-03-11T09:10:50.855Z,11.40
2018-03-11T09:13:17.256Z,12.13
2018-03-11T09:15:43.677Z,10.60
2018-03-11T09:18:10.064Z,10.40
2018-03-11T09:20:36.482Z,11.23
2018-03-11T09:23:03.591Z,10.60
2018-03-11T09:25:29.995Z,9.97
2018-03-11T09:27:56.470Z,12.00
2018-03-11T09:30:23.190Z,9.70
2018-03-11T09:32:49.846Z,10.30
2018-03-11T09:35:17.736Z,11.23
2018-03-11T09:37:44.160Z,8.93
2018-03-11T09:40:11.247Z,12.00
2018-03-11T09:42:37.696Z,11.27
2018-03-11T09:45:04.108Z,10.17
2018-03-11T09:47:30.544Z,10.17
2018-03-11T09:49:57.631Z,10.77
2018-03-11T09:52:24.119Z,8.70
2018-03-11T09:54:50.629Z,9.17
2018-03-11T09:57:17.010Z,10.07
2018-03-11T09:59:43.863Z,8.87
2018-03-11T10:02:10.299Z,9.20
2018-03-11T10:04:36.695Z,9.90
2018-03-11T10:07:03.964Z,8.73
2018-03-11T10:09:30.371Z,9.40
2018-03-11T10:11:56.796Z,9.47
2018-03-11T10:14:23.902Z,9.67
2018-03-11T10:16:50.283Z,10.67
2018-03-11T10:19:17.443Z,9.80
2018-03-11T10:21:43.860Z,8.83
2018-03-11T10:24:10.294Z,8.60
2018-03-11T10:26:36.703Z,10.63
2018-03-11T10:29:05.032Z,9.30
2018-03-11T10:31:32.121Z,9.60
2018-03-11T10:33:58.550Z,9.90
2018-03-11T10:36:24.947Z,9.80
2018-03-11T10:38:51.555Z,9.70
2018-03-11T10:41:17.964Z,10.53
2018-03-11T10:43:45.833Z,10.73
2018-03-11T10:46:12.345Z,9.30
2018-03-11T10:48:38.789Z,10.10
2018-03-11T10:51:05.408Z,8.40
2018-03-11T10:53:32.222Z,9.50
2018-03-11T10:55:58.615Z,8.30
2018-03-11T10:58:25.016Z,8.40
2018-03-11T11:00:51.555Z,8.97
2018-03-11T11:03:18.165Z,6.20
2018-03-11T11:05:45.321Z,5.50
2018-03-11T11:08:12.701Z,4.10
2018-03-11T11:10:39.857Z,3.90
2018-03-11T11:13:06.463Z,2.30
2018-03-11T11:15:33.162Z,1.93
2018-03-11T11:18:00.311Z,2.07
2018-03-11T11:20:26.700Z,3.10
2018-03-11T11:22:53.842Z,2.00
2018-03-11T11:25:21.106Z,2.57
2018-03-11T11:27:48.253Z,2.20
2018-03-11T11:30:14.675Z,1.70
2018-03-11T11:32:41.072Z,1.67
2018-03-11T11:35:07.619Z,1.70
2018-03-11T11:37:34.032Z,1.97
2018-03-11T11:40:01.203Z,2.47
2018-03-11T11:42:27.612Z,2.00
2018-03-11T11:44:54.014Z,1.87
2018-03-11T11:47:21.133Z,1.37
2018-03-11T11:49:47.527Z,1.20
2018-03-11T11:52:13.887Z,1.77
2018-03-11T11:54:40.348Z,1.20
2018-03-11T11:57:07.495Z,1.33
2018-03-11T11:59:34.675Z,1.77
2018-03-11T12:02:01.796Z,1.43
2018-03-11T12:04:29.187Z,1.20
2018-03-11T12:06:55.697Z,1.03
2018-03-11T12:09:22.103Z,1.30
2018-03-11T12:11:48.517Z,1.10
2018-03-11T12:14:14.921Z,1.00
2018-03-11T12:16:41.311Z,1.03
2018-03-11T12:19:08.515Z,0.90
2018-03-11T12:21:34.892Z,0.97
2018-03-11T12:24:02.098Z,1.00
2018-03-11T12:26:28.491Z,1.10
2018-03-11T12:28:54.964Z,1.23
2018-03-11T12:31:21.380Z,0.90
2018-03-11T12:33:47.744Z,0.80
2018-03-11T12:36:14.149Z,1.33
2018-03-11T12:38:40.492Z,1.13
2018-03-11T12:41:07.009Z,1.20
2018-03-11T12:43:34.074Z,0.97
2018-03-11T12:46:00.544Z,1.30
2018-03-11T12:48:27.683Z,1.20
2018-03-11T12:50:54.082Z,0.90
2018-03-11T12:53:21.220Z,0.80
2018-03-11T12:55:47.609Z,1.00
2018-03-11T12:58:14.036Z,0.83
2018-03-11T13:00:40.399Z,0.93
2018-03-11T13:03:06.815Z,1.20
2018-03-11T13:05:33.164Z,0.90
2018-03-11T13:07:59.644Z,1.30
2018-03-11T13:10:26.719Z,0.80
2018-03-11T13:12:53.107Z,1.07
2018-03-11T13:15:19.512Z,1.83
2018-03-11T13:17:45.889Z,1.00
2018-03-11T13:20:24.551Z,0.90
2018-03-11T13:22:51.001Z,1.07
2018-03-11T13:25:17.358Z,1.10
2018-03-11T13:27:56.126Z,0.87
2018-03-11T13:30:23.249Z,1.00
2018-03-11T13:33:01.891Z,1.10
2018-03-11T13:35:28.231Z,1.20
2018-03-11T13:37:54.707Z,1.07
2018-03-11T13:40:33.428Z,0.93
2018-03-11T13:43:00.611Z,1.37
2018-03-11T13:48:28.621Z,1.17
2018-03-11T13:50:54.987Z,1.10
2018-03-11T13:53:33.719Z,1.37
2018-03-11T13:56:00.142Z,1.30
2018-03-11T13:58:38.766Z,1.10
2018-03-11T14:01:05.908Z,1.40
2018-03-11T14:03:32.415Z,1.23
2018-03-11T14:05:58.883Z,1.17
2018-03-11T14:08:25.301Z,1.30
2018-03-11T14:10:51.708Z,1.13
2018-03-11T14:13:18.077Z,1.30
2018-03-11T14:15:44.431Z,1.33
2018-03-11T14:18:10.828Z,1.20
2018-03-11T14:20:37.304Z,1.00
2018-03-11T14:23:03.662Z,2.87
2018-03-11T14:25:30.050Z,0.80
2018-03-11T14:27:57.526Z,1.60
2018-03-11T14:30:23.947Z,1.30
2018-03-11T14:32:50.348Z,1.00
2018-03-11T14:35:16.839Z,1.50
2018-03-11T14:37:43.218Z,1.03
2018-03-11T14:40:09.652Z,0.90
2018-03-11T14:42:36.084Z,1.40
2018-03-11T14:45:02.506Z,0.87
2018-03-11T14:47:28.860Z,1.20
2018-03-11T14:49:55.219Z,0.80
2018-03-11T14:52:21.620Z,0.83
2018-03-11T14:54:48.025Z,1.23
2018-03-11T14:57:14.528Z,1.00
2018-03-11T14:59:41.678Z,1.13
2018-03-11T15:02:08.039Z,1.00
2018-03-11T15:04:34.437Z,1.37
2018-03-11T15:07:00.882Z,1.13
2018-03-11T15:09:42.158Z,1.03
2018-03-11T15:12:08.578Z,0.97
2018-03-11T15:14:35.040Z,1.00
2018-03-11T15:17:01.447Z,1.07
2018-03-11T15:19:27.893Z,0.80
2018-03-11T15:21:55.021Z,1.10
2018-03-11T15:24:21.395Z,0.90
2018-03-11T15:26:47.798Z,1.20
2018-03-11T15:29:14.160Z,0.80
2018-03-11T15:31:40.549Z,0.70
2018-03-11T15:34:07.646Z,1.40
2018-03-11T15:36:34.041Z,0.90
2018-03-11T15:39:00.475Z,0.93
2018-03-11T15:41:27.919Z,0.70
2018-03-11T15:43:54.296Z,0.90
2018-03-11T15:46:20.699Z,0.87
2018-03-11T15:48:47.063Z,1.00
2018-03-11T15:51:14.200Z,1.70
2018-03-11T15:53:40.610Z,3.10
2018-03-11T15:56:07.050Z,1.27
2018-03-11T15:58:33.472Z,1.10
2018-03-11T16:00:59.916Z,1.00
2018-03-11T16:03:26.425Z,1.13
2018-03-11T16:05:52.787Z,0.90
2018-03-11T16:08:19.192Z,0.90
2018-03-11T16:10:45.558Z,1.20
2018-03-11T16:13:11.931Z,0.90
2018-03-11T16:15:38.328Z,1.00
2018-03-11T16:18:04.782Z,0.83
2018-03-11T16:20:31.879Z,1.03
2018-03-11T16:22:58.280Z,1.33
2018-03-11T16:25:25.421Z,1.10
2018-03-11T16:27:52.600Z,1.30
2018-03-11T16:30:19.741Z,0.87
2018-03-11T16:32:46.175Z,1.07
2018-03-11T16:35:12.545Z,1.00
2018-03-11T16:37:38.897Z,0.90
2018-03-11T16:40:06.075Z,1.20
2018-03-11T16:42:33.236Z,1.00
2018-03-11T16:44:59.607Z,1.50
2018-03-11T16:47:25.964Z,2.20
2018-03-11T16:49:52.339Z,2.10
2018-03-11T16:52:18.719Z,2.03
2018-03-11T16:54:45.067Z,1.83
2018-03-11T16:57:12.228Z,1.47
2018-03-11T16:59:38.603Z,1.53
2018-03-11T17:02:04.968Z,1.20
2018-03-11T17:04:31.361Z,1.53
2018-03-11T17:06:57.718Z,1.70
2018-03-11T17:09:24.088Z,1.70
2018-03-11T17:11:50.488Z,2.40
2018-03-11T17:14:17.678Z,2.40
2018-03-11T17:16:44.069Z,3.77
2018-03-11T17:19:10.495Z,2.43
2018-03-11T17:21:36.933Z,2.83
2018-03-11T17:24:03.339Z,2.10
2018-03-11T17:26:29.727Z,2.87
2018-03-11T17:28:57.645Z,2.57
2018-03-11T17:31:24.952Z,1.90
2018-03-11T17:33:52.169Z,2.13
2018-03-11T17:36:18.619Z,1.90
2018-03-11T17:38:45.015Z,3.30
2018-03-11T17:41:11.440Z,2.50
2018-03-11T17:43:38.728Z,1.70
2018-03-11T17:46:05.280Z,1.73
2018-03-11T17:48:31.669Z,2.27
2018-03-11T17:50:58.118Z,2.47
2018-03-11T17:53:24.532Z,1.73
2018-03-11T17:55:50.993Z,1.80
2018-03-11T17:58:17.426Z,1.80
2018-03-11T18:00:44.560Z,2.00
2018-03-11T18:03:10.899Z,1.60
2018-03-11T18:05:37.260Z,2.90
2018-03-11T18:08:04.352Z,2.40
2018-03-11T18:10:30.727Z,2.13
2018-03-11T18:12:57.078Z,2.23
2018-03-11T18:15:23.424Z,2.90
2018-03-11T18:17:50.558Z,2.90
2018-03-11T18:20:16.898Z,2.80
2018-03-11T18:22:43.248Z,2.27
2018-03-11T18:25:09.568Z,2.90
2018-03-11T18:27:35.904Z,1.90
2018-03-11T18:30:03.064Z,2.50
2018-03-11T18:32:29.510Z,2.97
2018-03-11T18:34:55.843Z,3.00
2018-03-11T18:37:22.258Z,3.10
2018-03-11T18:39:48.655Z,4.10
2018-03-11T18:42:15.010Z,4.93
2018-03-11T18:44:41.349Z,5.57
2018-03-11T18:47:07.676Z,5.33
2018-03-11T18:49:34.010Z,5.93
2018-03-11T18:52:00.350Z,5.27
2018-03-11T18:54:26.677Z,4.07
2018-03-11T18:56:53.784Z,5.00
2018-03-11T18:59:20.139Z,4.77
2018-03-11T19:01:46.569Z,4.17
2018-03-11T19:04:12.919Z,5.33
2018-03-11T19:06:39.286Z,4.40
2018-03-11T19:09:05.667Z,4.80
2018-03-11T19:11:32.023Z,3.90
2018-03-11T19:13:58.335Z,4.97
2018-03-11T19:16:25.435Z,4.10
2018-03-11T19:18:51.815Z,6.67
2018-03-11T19:21:18.159Z,4.17
2018-03-11T19:23:45.631Z,5.07
2018-03-11T19:26:11.951Z,4.60
2018-03-11T19:28:38.323Z,5.83
2018-03-11T19:31:05.475Z,5.00
2018-03-11T19:33:32.583Z,5.80
2018-03-11T19:35:58.948Z,4.83
2018-03-11T19:38:25.352Z,4.97
2018-03-11T19:40:52.418Z,4.63
2018-03-11T19:43:19.501Z,6.13
2018-03-11T19:45:45.938Z,5.90
2018-03-11T19:48:12.287Z,6.50
2018-03-11T19:50:38.670Z,6.60
2018-03-11T19:53:05.784Z,7.43
2018-03-11T19:55:32.195Z,6.23
2018-03-11T19:57:58.559Z,5.40
2018-03-11T20:00:24.927Z,5.90
2018-03-11T20:02:51.329Z,6.40
2018-03-11T20:05:17.690Z,5.57
2018-03-11T20:07:44.052Z,6.43
2018-03-11T20:10:10.428Z,5.80
2018-03-11T20:12:36.781Z,5.80
2018-03-11T20:15:03.175Z,5.53
2018-03-11T20:17:29.550Z,5.27
2018-03-11T20:19:55.886Z,5.57
2018-03-11T20:22:22.256Z,5.67
2018-03-11T20:24:48.583Z,6.13
2018-03-11T20:27:15.016Z,5.73
2018-03-11T20:29:42.915Z,5.33
2018-03-11T20:32:10.068Z,5.10
2018-03-11T20:34:36.408Z,5.43
2018-03-11T20:37:02.775Z,4.20
2018-03-11T20:39:29.897Z,5.53
2018-03-11T20:41:56.300Z,5.00
2018-03-11T20:44:22.663Z,4.50
2018-03-11T20:46:49.048Z,3.90
2018-03-11T20:49:16.216Z,5.43
2018-03-11T20:51:42.579Z,5.10
2018-03-11T20:54:08.899Z,4.83
2018-03-11T20:56:35.256Z,4.83
2018-03-11T20:59:01.635Z,4.67
2018-03-11T21:01:27.995Z,4.90
2018-03-11T21:03:54.366Z,5.33
2018-03-11T21:06:21.504Z,5.63
2018-03-11T21:08:47.838Z,4.53
2018-03-11T21:11:14.192Z,4.57
2018-03-11T21:13:40.556Z,4.80
2018-03-11T21:16:06.934Z,4.17
2018-03-11T21:18:33.302Z,4.50
2018-03-11T21:20:59.684Z,3.87
2018-03-11T21:23:26.044Z,4.30
2018-03-11T21:25:52.366Z,3.43
2018-03-11T21:28:18.799Z,3.77
2018-03-11T21:30:45.118Z,3.83
2018-03-11T21:33:11.498Z,3.93
2018-03-11T21:35:37.838Z,3.67
2018-03-11T21:38:04.232Z,3.70
2018-03-11T21:40:30.589Z,3.10
2018-03-11T21:42:57.672Z,3.73
2018-03-11T21:45:24.827Z,4.00
2018-03-11T21:47:51.195Z,4.07
2018-03-11T21:50:17.519Z,3.90
2018-03-11T21:52:43.875Z,3.63
2018-03-11T21:55:10.211Z,3.70
2018-03-11T21:57:36.562Z,3.90
2018-03-11T22:00:03.316Z,4.10
2018-03-11T22:02:29.744Z,3.70
2018-03-11T22:04:56.087Z,4.43
2018-03-11T22:07:22.436Z,3.90
2018-03-11T22:09:49.568Z,4.60
2018-03-11T22:12:15.935Z,4.63
2018-03-11T22:14:42.308Z,3.97
2018-03-11T22:17:08.675Z,4.73
2018-03-11T22:19:35.785Z,4.60
2018-03-11T22:22:02.193Z,4.87
2018-03-11T22:24:28.523Z,4.87
2018-03-11T22:26:55.611Z,4.90
2018-03-11T22:29:21.960Z,5.57
2018-03-11T22:31:48.352Z,5.17
2018-03-11T22:34:15.455Z,5.27
2018-03-11T22:36:41.819Z,5.83
2018-03-11T22:39:08.259Z,5.40
2018-03-11T22:41:34.563Z,5.40
2018-03-11T22:44:00.942Z,5.97
2018-03-11T22:46:27.311Z,5.87
2018-03-11T22:48:53.648Z,6.67
2018-03-11T22:51:21.506Z,7.30
2018-03-11T22:53:47.896Z,6.47
2018-03-11T22:56:14.272Z,6.43
2018-03-11T22:58:40.637Z,7.20
2018-03-11T23:01:06.966Z,5.80
2018-03-11T23:03:33.353Z,6.50
2018-03-11T23:05:59.726Z,7.67
2018-03-11T23:08:26.812Z,7.50
2018-03-11T23:10:53.119Z,7.90
2018-03-11T23:13:19.459Z,8.40
2018-03-11T23:15:45.856Z,7.20
2018-03-11T23:18:12.212Z,8.77
2018-03-11T23:20:38.580Z,8.43
2018-03-11T23:23:04.961Z,7.37
2018-03-11T23:25:31.342Z,7.97
2018-03-11T23:27:57.676Z,9.07
2018-03-11T23:30:24.008Z,8.00
2018-03-11T23:32:50.387Z,9.90
2018-03-11T23:35:17.492Z,10.57
2018-03-11T23:37:43.859Z,10.17
2018-03-11T23:40:10.183Z,9.23
2018-03-11T23:42:36.563Z,10.57
2018-03-11T23:45:02.993Z,9.37
2018-03-11T23:47:29.324Z,10.57
2018-03-11T23:49:55.685Z,10.17
2018-03-11T23:52:22.005Z,9.80
2018-03-11T23:54:48.368Z,10.47
2018-03-11T23:57:14.668Z,9.70
2018-03-11T23:59:40.998Z,10.63
